This is the latest recevied weather packets stored in our database for station/object DH9NFM-11. If no packets are shown the sender has not sent any weather packets the latest 10 day(s).
| Time | Temp. | Humidity | Pressure | Rain* | Wind** | Luminosity | Snow |
|---|---|---|---|---|---|---|---|
| 1777516604 | -0.56° C | 72% | 1026.8 hPa | 0 mm | - | - | - |
| 1777514807 | 0.56° C | 67% | 1026.6 hPa | 0 mm | - | - | - |
| 1777511817 | 1.11° C | 65% | 1026.4 hPa | 0 mm | - | - | - |
| 1777505760 | 2.78° C | 61% | 1026.4 hPa | 0 mm | - | - | - |
| 1777503396 | 2.78° C | 64% | 1026.2 hPa | 0 mm | - | - | - |
| 1777499802 | 3.33° C | 60% | 1025.8 hPa | 0 mm | - | - | - |
| 1777499216 | 3.89° C | 61% | 1025.6 hPa | 0 mm | - | - | - |
| 1777495602 | 6.11° C | 47% | 1025.1 hPa | 0 mm | - | - | - |
| 1777494390 | 6.67° C | 46% | 1024.9 hPa | 0 mm | - | - | - |
| 1777493765 | 7.22° C | 45% | 1024.9 hPa | 0 mm | - | - | - |
| 1777492008 | 7.78° C | 43% | 1024.3 hPa | 0 mm | - | - | - |
| 1777490796 | 7.78° C | 42% | 1024.2 hPa | 0 mm | - | - | - |
| 1777486011 | 10° C | 37% | 1022.9 hPa | 0 mm | - | - | - |
| 1777485405 | 10° C | 36% | 1022.7 hPa | 0 mm | - | - | - |
| 1777484799 | 10.56° C | 35% | 1022.6 hPa | 0 mm | - | - | - |
| 1777481770 | 11.67° C | 34% | 1022.2 hPa | 0 mm | - | - | - |
| 1777474561 | 14.44° C | 31% | 1021.8 hPa | 0 mm | - | - | - |
| 1777471593 | 14.44° C | 30% | 1021.6 hPa | 0 mm | - | - | - |
| 1777470381 | 15° C | 33% | 1021.5 hPa | 0 mm | - | - | - |
| 1777469795 | 14.44° C | 32% | 1021.4 hPa | 0 mm | - | - | - |
| 1777466807 | 15° C | 31% | 1021.3 hPa | 0 mm | - | - | - |
| 1777465595 | 15.56° C | 31% | 1021.4 hPa | 0 mm | - | - | - |
| 1777462021 | 14.44° C | 32% | 1021.6 hPa | 0 mm | - | - | - |
| 1777460809 | 14.44° C | 31% | 1021.6 hPa | 0 mm | - | - | - |
| 1777458406 | 14.44° C | 31% | 1021.8 hPa | 0 mm | - | - | - |
* Rain latest hour (hover to see other rain measurements)
** Current wind speed in m/s (hover to see current wind gust speed)